Terminal Aerodrome Forecast
Issued by NWS

Home | Current Version | Previous Version | Graphics & Text | Print | Product List | Glossary On
Versions: 1 2 3 4 5 6 7 8 9 10 11 12 13 14 15 16 17 18 19 20 21
084
FTUS43 KABR 230421 AAC
TAFMBG
TAF AMD
KMBG 230421Z 2304/2324 02007KT P6SM OVC018
     FM230900 04009KT P6SM OVC010
     FM231700 05013G21KT P6SM OVC015=

USA.gov is the U.S. government's official web portal to all federal, state and local government web resources and services.